Time;durP1;ratioP1;P1;durP2;ratioP2;P2;SDS_P1;SDS_P2;PMS_P1;PMS_P2;Temp;Humidity;BMP_temperature;BMP_pressure;BME280_temperature;BME280_humidity;BME280_pressure;Samples;Min_cycle;Max_cycle;Signal;HPM_P1;HPM_P2
2023/01/09 06:55:36;;;;;;;1.42;0.57;;;;;;;;;;10547793;27;20398;-81
2023/01/09 07:00:38;;;;;;;;;;;;;;;;;;10559077;28;20032;-80
2023/01/09 07:05:41;;;;;;;9.75;4.95;;;;;;;;;;10555777;28;20254;-82
2023/01/09 07:10:43;;;;;;;3.80;1.10;;;;;;;;;;10524962;28;20230;-81
2023/01/09 07:15:44;;;;;;;3.35;1.08;;;;;;;;;;10523809;28;20024;-81
2023/01/09 07:20:45;;;;;;;2.72;0.90;;;;;;;;;;10527634;28;20024;-81
2023/01/09 07:25:46;;;;;;;2.85;1.02;;;;;;;;;;10546242;28;20036;-82
2023/01/09 07:30:47;;;;;;;4.72;1.00;;;;;;;;;;10527237;28;20363;-82
2023/01/09 07:35:50;;;;;;;2.95;0.80;;;;;;;;;;10524571;28;20120;-81
2023/01/09 07:40:51;;;;;;;4.10;1.30;;;;;;;;;;10542897;28;20024;-81
2023/01/09 07:45:52;;;;;;;3.22;1.17;;;;;;;;;;10523198;28;20031;-81
2023/01/09 07:50:53;;;;;;;3.45;0.95;;;;;;;;;;10524033;28;20043;-82
2023/01/09 07:55:54;;;;;;;4.72;1.23;;;;;;;;;;10523701;28;20032;-80
2023/01/09 08:00:55;;;;;;;1.80;0.80;;;;;;;;;;10529651;28;20055;-80
2023/01/09 08:05:56;;;;;;;2.67;0.80;;;;;;;;;;10512853;28;20091;-81
2023/01/09 08:10:57;;;;;;;11.50;1.30;;;;;;;;;;10527620;28;20040;-78
2023/01/09 08:15:58;;;;;;;6.88;1.30;;;;;;;;;;10507806;28;20037;-79
2023/01/09 08:20:59;;;;;;;4.72;1.05;;;;;;;;;;10519432;28;20111;-80
2023/01/09 08:26:01;;;;;;;5.32;1.20;;;;;;;;;;10507823;28;20036;-84
2023/01/09 08:31:02;;;;;;;6.15;1.67;;;;;;;;;;10503752;28;20044;-83
2023/01/09 08:36:03;;;;;;;6.35;2.72;;;;;;;;;;10508203;28;20031;-83
2023/01/09 08:47:04;;;;;;;;;;;;;;;;;;10523413;28;20081;-83
2023/01/09 08:51:44;;;;;;;6.95;4.18;;;;;;;;;;10519061;28;20060;-83
2023/01/09 08:56:45;;;;;;;6.75;3.78;;;;;;;;;;10500526;28;20463;-83
2023/01/09 09:01:46;;;;;;;8.25;4.32;;;;;;;;;;10519601;28;20074;-84
2023/01/09 09:06:47;;;;;;;;;;;;;;;;;;10503601;28;20028;-83
2023/01/09 09:11:48;;;;;;;5.72;2.78;;;;;;;;;;10504052;28;19987;-83
2023/01/09 09:16:49;;;;;;;5.38;2.75;;;;;;;;;;10496329;28;20070;-83
2023/01/09 09:21:50;;;;;;;;;;;;;;;;;;10511057;28;20104;-85
2023/01/09 09:26:51;;;;;;;4.53;2.13;;;;;;;;;;10507435;28;19926;-83
2023/01/09 09:31:52;;;;;;;4.30;1.90;;;;;;;;;;10527859;28;20044;-84
2023/01/09 09:36:54;;;;;;;3.88;1.70;;;;;;;;;;10504402;28;20028;-82
2023/01/09 09:47:29;;;;;;;2.75;1.70;;;;;;;;;;10520432;28;20024;-83
2023/01/09 09:52:48;;;;;;;4.85;1.90;;;;;;;;;;10498592;28;20108;-83
2023/01/09 09:57:50;;;;;;;4.50;2.00;;;;;;;;;;10497482;28;20123;-84
2023/01/09 10:02:58;;;;;;;3.85;1.40;;;;;;;;;;10497265;28;20035;-82
2023/01/09 10:08:02;;;;;;;4.38;1.77;;;;;;;;;;10501540;28;20031;-85
2023/01/09 10:14:03;;;;;;;3.08;1.50;;;;;;;;;;10500120;28;20039;-84
2023/01/09 10:18:37;;;;;;;4.80;1.65;;;;;;;;;;10518801;28;20037;-83
2023/01/09 10:24:19;;;;;;;3.80;1.15;;;;;;;;;;10502024;28;20105;-83
2023/01/09 10:29:36;;;;;;;4.15;1.77;;;;;;;;;;10292903;28;20038;-84
2023/01/09 10:34:43;;;;;;;4.25;1.52;;;;;;;;;;10466686;28;20040;-85
2023/01/09 10:39:47;;;;;;;5.85;3.13;;;;;;;;;;10511872;28;20067;-85
2023/01/09 10:44:56;;;;;;;3.38;1.30;;;;;;;;;;10501910;28;20405;-84
2023/01/09 10:49:58;;;;;;;3.78;1.50;;;;;;;;;;10499256;28;20024;-84
2023/01/09 10:55:02;;;;;;;3.38;1.40;;;;;;;;;;10498812;28;20036;-84
2023/01/09 11:00:04;;;;;;;4.22;1.33;;;;;;;;;;10497876;28;20036;-85
2023/01/09 11:05:06;;;;;;;3.10;1.40;;;;;;;;;;10518144;28;20058;-83
2023/01/09 11:10:08;;;;;;;;;;;;;;;;;;10496029;28;20036;-84
2023/01/09 11:15:15;;;;;;;4.38;1.45;;;;;;;;;;10497118;28;19905;-84
2023/01/09 11:20:27;;;;;;;5.35;2.03;;;;;;;;;;10496273;28;20060;-83
2023/01/09 11:25:28;;;;;;;4.50;1.52;;;;;;;;;;10497632;28;20082;-83
2023/01/09 11:30:32;;;;;;;4.43;1.60;;;;;;;;;;10502694;28;20037;-83
2023/01/09 11:35:34;;;;;;;5.38;1.77;;;;;;;;;;10502944;28;20486;-83
2023/01/09 11:40:38;;;;;;;6.45;1.42;;;;;;;;;;10526658;28;20021;-84
2023/01/09 11:45:45;;;;;;;4.65;1.55;;;;;;;;;;10508427;28;20055;-83
2023/01/09 11:50:53;;;;;;;4.20;1.92;;;;;;;;;;10502577;28;20043;-83
2023/01/09 11:56:03;;;;;;;5.43;1.88;;;;;;;;;;10474455;22;20041;-84
2023/01/09 12:01:22;;;;;;;3.60;1.60;;;;;;;;;;10406373;28;20029;-84
2023/01/09 12:12:15;;;;;;;3.30;1.67;;;;;;;;;;10484366;28;20020;-84
2023/01/09 12:17:25;;;;;;;4.57;1.73;;;;;;;;;;10459739;28;20472;-86
2023/01/09 12:22:50;;;;;;;6.00;2.47;;;;;;;;;;10459351;28;20131;-86
2023/01/09 12:28:11;;;;;;;4.13;2.03;;;;;;;;;;10460802;28;20084;-84
2023/01/09 12:33:37;;;;;;;4.45;2.17;;;;;;;;;;10470328;28;20092;-83
2023/01/09 12:38:56;;;;;;;4.93;2.10;;;;;;;;;;10484073;28;20049;-85
2023/01/09 12:44:05;;;;;;;5.95;2.33;;;;;;;;;;10497436;28;20033;-86
2023/01/09 12:49:09;;;;;;;3.58;1.58;;;;;;;;;;10462158;28;20021;-83
2023/01/09 12:54:24;;;;;;;4.95;2.90;;;;;;;;;;10458940;28;20044;-83
2023/01/09 12:59:29;;;;;;;4.43;1.50;;;;;;;;;;10459669;28;20074;-84
2023/01/09 13:04:33;;;;;;;4.15;1.60;;;;;;;;;;10461867;28;20499;-85
2023/01/09 13:09:49;;;;;;;100.57;87.00;;;;;;;;;;10459260;28;20051;-82
2023/01/09 13:15:03;;;;;;;3.80;2.05;;;;;;;;;;10461459;28;20033;-84
2023/01/09 13:20:18;;;;;;;3.13;1.50;;;;;;;;;;10460014;28;20126;-84
2023/01/09 13:25:25;;;;;;;3.33;1.85;;;;;;;;;;10454308;28;20387;-83
2023/01/09 13:30:35;;;;;;;3.55;1.50;;;;;;;;;;10457006;28;20130;-83
2023/01/09 13:35:50;;;;;;;2.60;1.20;;;;;;;;;;10478109;28;20055;-83
2023/01/09 13:46:42;;;;;;;4.65;1.58;;;;;;;;;;10468710;28;20077;-83
2023/01/09 13:51:43;;;;;;;3.30;1.35;;;;;;;;;;10455696;28;20025;-83
2023/01/09 13:57:03;;;;;;;3.05;1.45;;;;;;;;;;10458208;28;20032;-84
2023/01/09 14:02:07;;;;;;;2.83;1.40;;;;;;;;;;10456358;28;20123;-84
2023/01/09 14:07:24;;;;;;;2.67;1.55;;;;;;;;;;10452256;28;20447;-84
2023/01/09 14:12:26;;;;;;;5.32;1.67;;;;;;;;;;10452209;28;20544;-83
2023/01/09 14:17:31;;;;;;;3.15;1.70;;;;;;;;;;10451967;28;20029;-85
2023/01/09 14:22:34;;;;;;;5.65;1.70;;;;;;;;;;10454863;28;20112;-83
2023/01/09 14:28:05;;;;;;;5.03;1.80;;;;;;;;;;10453925;28;20506;-83
2023/01/09 14:33:19;;;;;;;3.50;1.95;;;;;;;;;;10460364;28;20045;-82
2023/01/09 14:38:27;;;;;;;3.40;1.40;;;;;;;;;;10455830;28;20071;-82
2023/01/09 14:43:33;;;;;;;3.85;1.98;;;;;;;;;;10472137;28;20032;-83
2023/01/09 14:48:40;;;;;;;4.32;1.60;;;;;;;;;;10455146;28;20070;-83
2023/01/09 14:53:42;;;;;;;4.13;1.95;;;;;;;;;;10451119;28;20041;-83
2023/01/09 14:58:43;;;;;;;3.08;1.80;;;;;;;;;;10450286;28;20082;-83
2023/01/09 15:03:48;;;;;;;5.47;2.85;;;;;;;;;;10450359;28;20088;-83
2023/01/09 15:08:55;;;;;;;6.00;3.42;;;;;;;;;;10470490;28;20021;-83
2023/01/09 15:13:58;;;;;;;3.85;1.85;;;;;;;;;;10454962;28;20063;-84
2023/01/09 15:19:07;;;;;;;3.40;1.55;;;;;;;;;;10461864;28;20029;-84
2023/01/09 15:24:34;;;;;;;3.08;1.70;;;;;;;;;;10458968;28;20084;-84
2023/01/09 15:29:36;;;;;;;4.13;2.03;;;;;;;;;;10456217;28;20398;-83
2023/01/09 15:34:37;;;;;;;3.60;1.88;;;;;;;;;;10458227;28;20146;-83
2023/01/09 15:39:38;;;;;;;;;;;;;;;;;;10456981;28;20178;-83
2023/01/09 15:44:42;;;;;;;4.00;2.15;;;;;;;;;;10461091;28;19908;-83
2023/01/09 15:49:44;;;;;;;2.45;1.50;;;;;;;;;;10460700;28;20055;-84
2023/01/09 15:54:47;;;;;;;5.32;1.85;;;;;;;;;;10490136;28;20056;-84
2023/01/09 15:59:56;;;;;;;2.83;1.75;;;;;;;;;;10502973;28;20052;-84
2023/01/09 16:04:57;;;;;;;6.75;3.03;;;;;;;;;;10482154;28;20100;-84
2023/01/09 16:10:00;;;;;;;2.50;1.77;;;;;;;;;;10464873;28;20025;-85
2023/01/09 16:15:01;;;;;;;2.95;1.65;;;;;;;;;;10474657;28;20067;-86
2023/01/09 16:20:02;;;;;;;;;;;;;;;;;;10482645;28;20028;-85
2023/01/09 16:25:23;;;;;;;5.50;3.33;;;;;;;;;;10460088;28;20281;-85
2023/01/09 16:30:26;;;;;;;3.17;1.80;;;;;;;;;;10461087;28;20021;-84
2023/01/09 16:35:30;;;;;;;4.43;2.47;;;;;;;;;;10459947;28;20434;-84
2023/01/09 16:40:34;;;;;;;2.95;2.15;;;;;;;;;;10458062;28;20021;-85
2023/01/09 16:45:39;;;;;;;2.72;1.75;;;;;;;;;;10477547;28;20021;-85
2023/01/09 16:50:41;;;;;;;2.78;1.73;;;;;;;;;;10459599;28;20033;-84
2023/01/09 16:55:42;;;;;;;2.17;1.38;;;;;;;;;;10458106;28;20044;-85
2023/01/09 17:00:43;;;;;;;3.88;2.00;;;;;;;;;;10460049;28;20118;-84
2023/01/09 17:05:44;;;;;;;2.70;1.95;;;;;;;;;;10461278;28;20040;-84
2023/01/09 17:10:45;;;;;;;;;;;;;;;;;;10473917;28;20029;-84
2023/01/09 17:15:47;;;;;;;4.72;1.70;;;;;;;;;;10455489;28;19909;-81
2023/01/09 17:20:55;;;;;;;2.85;1.88;;;;;;;;;;10476837;28;20028;-84
